Time;durP1;ratioP1;P1;durP2;ratioP2;P2;SDS_P1;SDS_P2;PMS_P1;PMS_P2;Temp;Humidity;BMP_temperature;BMP_pressure;BME280_temperature;BME280_humidity;BME280_pressure;Samples;Min_cycle;Max_cycle;Signal;HPM_P1;HPM_P2
2021/09/17 00:00:33;;;;;;;0.20;0.20;;;;;;;20.13;54.20;99011.50;5012901;28;20442;-84
2021/09/17 00:02:59;;;;;;;0.10;0.10;;;;;;;20.11;54.23;99019.19;5029290;28;20091;-83
2021/09/17 00:05:25;;;;;;;0.10;0.10;;;;;;;20.09;54.36;99015.22;5012852;28;20026;-87
2021/09/17 00:07:50;;;;;;;0.08;0.08;;;;;;;20.10;54.31;99014.09;5025195;28;20021;-84
2021/09/17 00:10:16;;;;;;;0.75;0.75;;;;;;;20.10;54.65;99014.09;5022173;28;20067;-83
2021/09/17 00:12:43;;;;;;;0.10;0.10;;;;;;;20.04;54.54;99004.59;5019367;28;20083;-82
2021/09/17 00:15:10;;;;;;;0.22;0.22;;;;;;;20.00;55.04;99002.56;5021440;28;20029;-81
2021/09/17 00:17:36;;;;;;;0.20;0.20;;;;;;;19.95;55.27;99007.44;5017987;28;20512;-81
2021/09/17 00:20:03;;;;;;;1.25;0.38;;;;;;;19.93;55.06;99010.50;5018601;28;20021;-80
2021/09/17 00:22:29;;;;;;;0.20;0.20;;;;;;;19.90;55.39;98999.53;5032087;28;20025;-80
2021/09/17 00:24:54;;;;;;;0.70;0.70;;;;;;;19.87;55.34;98990.13;5031945;28;20044;-82
2021/09/17 00:27:20;;;;;;;0.10;0.10;;;;;;;19.85;55.63;98992.41;5024307;28;20392;-82
2021/09/17 00:29:45;;;;;;;0.10;0.10;;;;;;;19.82;55.59;98995.75;5024793;28;20461;-79
2021/09/17 00:32:10;;;;;;;0.10;0.10;;;;;;;19.79;55.59;98980.94;5027187;28;20026;-79
2021/09/17 00:34:36;;;;;;;0.20;0.20;;;;;;;19.78;55.63;98979.34;5030691;28;20029;-79
2021/09/17 00:37:01;;;;;;;0.40;0.40;;;;;;;19.77;55.63;98980.47;5026470;28;20028;-78
2021/09/17 00:39:27;;;;;;;0.10;0.10;;;;;;;19.79;55.44;98974.72;5031741;28;20025;-78
2021/09/17 00:41:52;;;;;;;0.10;0.10;;;;;;;19.83;55.36;98975.63;5026796;28;20511;-78
2021/09/17 00:44:23;;;;;;;0.10;0.10;;;;;;;19.86;55.01;98974.19;5019501;28;20032;-79
2021/09/17 00:46:49;;;;;;;0.20;0.20;;;;;;;19.87;55.00;98971.13;5029260;28;20024;-79
2021/09/17 00:49:15;;;;;;;0.20;0.20;;;;;;;19.89;54.77;98971.59;5029717;28;20036;-78
2021/09/17 00:51:40;;;;;;;0.10;0.10;;;;;;;19.88;54.89;98975.41;5023941;28;20408;-79
2021/09/17 00:54:06;;;;;;;0.10;0.10;;;;;;;19.90;54.95;98980.53;5011885;28;20457;-78
2021/09/17 00:56:33;;;;;;;0.00;0.00;;;;;;;19.92;54.89;98980.97;5017946;28;20025;-82
2021/09/17 00:58:58;;;;;;;0.10;0.10;;;;;;;19.93;54.32;98988.78;5019061;28;20026;-81
2021/09/17 01:01:24;;;;;;;0.00;0.00;;;;;;;19.87;52.41;98992.84;5021027;28;20473;-75
2021/09/17 01:03:49;;;;;;;0.15;0.15;;;;;;;19.78;52.19;98994.84;5031776;28;20079;-75
2021/09/17 01:06:15;;;;;;;0.10;0.10;;;;;;;19.76;52.37;98991.69;5017715;28;20026;-78
2021/09/17 01:08:40;;;;;;;0.10;0.10;;;;;;;19.72;52.09;98982.66;5026541;28;20107;-78
2021/09/17 01:11:07;;;;;;;0.10;0.10;;;;;;;19.68;52.43;98979.81;5030093;28;20526;-79
2021/09/17 01:13:32;;;;;;;0.00;0.00;;;;;;;19.66;52.56;98982.06;5016743;28;20437;-79
2021/09/17 01:15:58;;;;;;;0.10;0.10;;;;;;;19.65;52.67;98973.16;5016149;28;20028;-79
2021/09/17 01:18:23;;;;;;;0.10;0.10;;;;;;;19.62;52.89;98979.25;5030216;28;20049;-79
2021/09/17 01:20:49;;;;;;;0.10;0.10;;;;;;;19.60;53.02;98978.78;5018384;28;20026;-78
2021/09/17 01:23:15;;;;;;;0.08;0.08;;;;;;;19.58;53.20;98972.09;5011384;28;20030;-79
2021/09/17 01:25:40;;;;;;;0.10;0.10;;;;;;;19.55;53.31;98961.94;5024450;28;20392;-78
2021/09/17 01:28:05;;;;;;;0.10;0.10;;;;;;;19.50;53.61;98966.44;5028304;28;20471;-79
2021/09/17 01:30:31;;;;;;;0.10;0.10;;;;;;;19.50;53.58;98962.94;5020265;28;20492;-79
2021/09/17 01:32:57;;;;;;;0.10;0.10;;;;;;;19.46;53.61;98970.19;5027823;28;20033;-80
2021/09/17 01:35:24;;;;;;;0.30;0.30;;;;;;;19.42;53.68;98956.50;5020747;28;20116;-80
2021/09/17 01:37:50;;;;;;;0.10;0.10;;;;;;;19.38;54.17;98947.44;5019717;28;20030;-80
2021/09/17 01:40:17;;;;;;;0.00;0.00;;;;;;;19.32;54.46;98943.38;5010995;28;20025;-80
2021/09/17 01:42:43;;;;;;;0.10;0.10;;;;;;;19.22;54.63;98947.31;5011148;28;20026;-80
2021/09/17 01:45:10;;;;;;;0.00;0.00;;;;;;;19.21;54.71;98951.16;5015257;28;20033;-79
2021/09/17 01:47:35;;;;;;;0.10;0.10;;;;;;;19.18;55.27;98958.03;5023043;28;20049;-77
2021/09/17 01:50:01;;;;;;;0.10;0.10;;;;;;;19.16;55.22;98951.38;5030538;28;20481;-79
2021/09/17 01:52:26;;;;;;;0.10;0.10;;;;;;;19.17;54.91;98948.31;5019253;28;20045;-79
2021/09/17 01:54:52;;;;;;;0.10;0.10;;;;;;;19.17;54.86;98948.31;5014381;28;20024;-80
2021/09/17 01:57:17;;;;;;;0.00;0.00;;;;;;;19.18;54.99;98951.84;5025768;28;20075;-81
2021/09/17 01:59:42;;;;;;;0.10;0.10;;;;;;;19.21;54.99;98962.00;5010951;28;20029;-81
2021/09/17 02:02:08;;;;;;;0.00;0.00;;;;;;;19.23;54.63;98962.47;5025781;28;20017;-80
2021/09/17 02:04:33;;;;;;;0.20;0.20;;;;;;;19.23;54.84;98956.25;5029275;28;20466;-85
2021/09/17 02:06:59;;;;;;;0.00;0.00;;;;;;;19.23;54.92;98945.41;5017471;28;20033;-82
2021/09/17 02:09:24;;;;;;;0.10;0.10;;;;;;;19.14;55.16;98938.16;5028899;28;20028;-82
2021/09/17 02:11:50;;;;;;;0.20;0.20;;;;;;;19.04;55.83;98927.75;5010696;28;20026;-83
2021/09/17 02:14:15;;;;;;;0.10;0.10;;;;;;;18.99;56.01;98930.66;5015166;28;20056;-82
2021/09/17 02:16:41;;;;;;;0.00;0.00;;;;;;;18.97;55.89;98922.06;5030022;28;20022;-79
2021/09/17 02:19:07;;;;;;;0.10;0.10;;;;;;;18.96;55.76;98918.59;5012999;28;20077;-82
2021/09/17 02:21:33;;;;;;;0.28;0.28;;;;;;;18.96;55.93;98923.22;5013372;28;20017;-83
2021/09/17 02:23:59;;;;;;;0.10;0.10;;;;;;;18.96;55.73;98934.84;5021724;28;20030;-83
2021/09/17 02:26:24;;;;;;;0.10;0.10;;;;;;;18.95;55.88;98944.09;5018736;28;20497;-82
2021/09/17 02:28:49;;;;;;;0.10;0.10;;;;;;;18.92;55.54;98931.22;5012082;28;20033;-81
2021/09/17 02:31:15;;;;;;;0.10;0.10;;;;;;;18.93;54.69;98934.72;5015070;28;20029;-81
2021/09/17 02:33:41;;;;;;;0.10;0.10;;;;;;;18.90;53.89;98941.56;5013908;28;20035;-81
2021/09/17 02:36:07;;;;;;;0.10;0.10;;;;;;;18.88;53.18;98938.41;5029170;28;20021;-80
2021/09/17 02:38:32;;;;;;;0.10;0.10;;;;;;;18.83;52.99;98928.56;5021657;28;20032;-83
2021/09/17 02:40:57;;;;;;;0.10;0.10;;;;;;;18.82;52.86;98932.41;5010756;28;20107;-85
2021/09/17 02:43:23;;;;;;;0.10;0.10;;;;;;;18.80;52.51;98942.00;5026403;28;20060;-86
2021/09/17 02:45:48;;;;;;;0.10;0.10;;;;;;;18.74;52.16;98933.28;5024084;28;20026;-86
2021/09/17 02:48:14;;;;;;;0.00;0.00;;;;;;;18.70;52.19;98929.63;5011646;28;20027;-81
2021/09/17 02:50:39;;;;;;;0.10;0.10;;;;;;;18.52;52.91;98927.09;5026183;28;20026;-81
2021/09/17 02:53:06;;;;;;;0.10;0.10;;;;;;;18.42;53.31;98924.00;5029964;28;20025;-81
2021/09/17 02:55:32;;;;;;;0.10;0.10;;;;;;;18.38;53.59;98918.44;5013600;28;20038;-82
2021/09/17 02:57:57;;;;;;;0.57;0.57;;;;;;;18.33;53.75;98922.16;5013556;28;20489;-81
2021/09/17 03:00:23;;;;;;;0.13;0.13;;;;;;;18.35;53.90;98917.19;5023074;28;20116;-80
2021/09/17 03:02:48;;;;;;;0.10;0.10;;;;;;;18.35;53.86;98919.91;5024485;28;20025;-80
2021/09/17 03:05:14;;;;;;;0.10;0.10;;;;;;;18.35;53.97;98917.19;5011985;28;20022;-82
2021/09/17 03:07:39;;;;;;;0.10;0.10;;;;;;;18.37;53.99;98922.28;5013848;28;20465;-81
2021/09/17 03:10:05;;;;;;;0.10;0.10;;;;;;;18.37;53.97;98936.63;5017009;28;20060;-81
2021/09/17 03:12:31;;;;;;;0.00;0.00;;;;;;;18.39;53.81;98928.16;5028804;28;20109;-80
2021/09/17 03:14:56;;;;;;;0.00;0.00;;;;;;;18.42;53.63;98924.81;5027792;28;20032;-80
2021/09/17 03:17:22;;;;;;;0.10;0.10;;;;;;;18.42;53.75;98918.59;5030725;28;20132;-78
2021/09/17 03:19:47;;;;;;;0.10;0.10;;;;;;;18.43;53.27;98920.16;5017559;28;20025;-79
2021/09/17 03:22:12;;;;;;;0.10;0.10;;;;;;;18.42;52.93;98924.00;5015914;28;20021;-77
2021/09/17 03:24:38;;;;;;;0.10;0.10;;;;;;;18.46;52.50;98939.25;5024885;28;20022;-77
2021/09/17 03:27:03;;;;;;;0.10;0.10;;;;;;;18.45;52.36;98918.72;5029804;28;20025;-78
2021/09/17 03:29:29;;;;;;;0.20;0.20;;;;;;;18.48;52.38;98918.06;5015675;28;20026;-77
2021/09/17 03:31:54;;;;;;;0.10;0.10;;;;;;;18.49;52.25;98916.13;5020398;28;20017;-78
2021/09/17 03:34:20;;;;;;;0.10;0.10;;;;;;;18.43;51.74;98922.88;5033150;28;20480;-79
2021/09/17 03:36:45;;;;;;;0.47;0.25;;;;;;;18.33;51.91;98921.38;5025396;28;20025;-78
2021/09/17 03:39:13;;;;;;;0.10;0.10;;;;;;;18.26;51.78;98919.19;5028498;28;20040;-78
2021/09/17 03:41:40;;;;;;;0.10;0.10;;;;;;;18.23;52.24;98919.84;5020173;28;20408;-80
2021/09/17 03:44:05;;;;;;;0.17;0.17;;;;;;;18.17;52.46;98921.16;5015594;28;20037;-79
2021/09/17 03:46:31;;;;;;;0.10;0.10;;;;;;;18.12;52.94;98910.53;5026061;28;20098;-76
2021/09/17 03:48:56;;;;;;;0.10;0.10;;;;;;;18.05;53.01;98908.34;5018107;28;20029;-78
2021/09/17 03:51:21;;;;;;;0.05;0.05;;;;;;;18.04;53.04;98909.47;5014907;28;20022;-79
2021/09/17 03:53:47;;;;;;;0.10;0.10;;;;;;;18.03;53.38;98924.91;5014913;28;20042;-79
2021/09/17 03:56:12;;;;;;;0.10;0.10;;;;;;;18.00;53.59;98935.59;5013002;28;20068;-81
2021/09/17 03:58:38;;;;;;;0.20;0.20;;;;;;;17.95;54.28;98938.50;5020197;28;20048;-80
2021/09/17 04:01:03;;;;;;;0.00;0.00;;;;;;;17.94;54.86;98943.09;5023171;28;20022;-85
2021/09/17 04:03:29;;;;;;;0.10;0.10;;;;;;;17.91;55.16;98931.00;5020572;28;20033;-83
2021/09/17 04:05:54;;;;;;;0.10;0.10;;;;;;;17.88;55.21;98920.84;5022548;28;20033;-85
2021/09/17 04:08:19;;;;;;;0.10;0.10;;;;;;;17.91;55.76;98930.22;5027855;28;20022;-83
2021/09/17 04:10:45;;;;;;;0.10;0.10;;;;;;;17.92;55.35;98921.78;5013492;28;20498;-84
2021/09/17 04:13:10;;;;;;;0.10;0.10;;;;;;;17.97;55.50;98918.13;5022606;28;20080;-85
2021/09/17 04:15:36;;;;;;;0.10;0.10;;;;;;;18.05;55.30;98916.47;5013735;28;20109;-81
2021/09/17 04:18:01;;;;;;;0.10;0.10;;;;;;;18.08;55.43;98911.19;5016032;28;20044;-88
2021/09/17 04:20:27;;;;;;;0.10;0.10;;;;;;;18.20;55.00;98912.38;5029195;28;20466;-85
2021/09/17 04:22:52;;;;;;;0.00;0.00;;;;;;;18.30;55.23;98912.00;5021306;28;20570;-86
2021/09/17 04:25:18;;;;;;;0.38;0.38;;;;;;;18.40;54.80;98906.16;5026976;28;20511;-80
2021/09/17 04:27:46;;;;;;;0.10;0.10;;;;;;;18.54;54.43;98915.91;5030945;28;20384;-78
2021/09/17 04:30:14;;;;;;;0.40;0.40;;;;;;;18.67;54.05;98911.34;5019081;28;20025;-79
2021/09/17 04:32:39;;;;;;;0.32;0.32;;;;;;;18.85;54.25;98912.00;5024818;28;20387;-73
2021/09/17 04:35:05;;;;;;;0.17;0.17;;;;;;;19.03;54.27;98905.28;5011834;28;20029;-73
2021/09/17 04:37:31;;;;;;;0.10;0.10;;;;;;;19.19;53.60;98907.34;5012614;28;20467;-73
2021/09/17 04:39:56;;;;;;;0.10;0.10;;;;;;;19.44;53.22;98896.50;5011299;28;20025;-74
2021/09/17 04:42:22;;;;;;;0.10;0.10;;;;;;;19.64;52.72;98906.47;5012748;28;20101;-74
2021/09/17 04:44:47;;;;;;;0.00;0.00;;;;;;;19.89;52.29;98916.53;5012684;28;20018;-74
2021/09/17 04:47:13;;;;;;;0.10;0.10;;;;;;;20.12;51.82;98912.16;5012662;28;20022;-74
2021/09/17 04:49:38;;;;;;;0.00;0.00;;;;;;;20.38;50.99;98929.19;5012406;28;20022;-75
2021/09/17 04:52:04;;;;;;;0.10;0.10;;;;;;;20.62;50.03;98923.66;5013155;28;20032;-74
2021/09/17 04:54:29;;;;;;;0.10;0.10;;;;;;;20.84;48.45;98920.78;5010591;28;20058;-74
2021/09/17 04:56:55;;;;;;;0.08;0.08;;;;;;;21.08;48.00;98928.78;5012789;28;20021;-73
2021/09/17 04:59:20;;;;;;;0.10;0.10;;;;;;;21.34;47.55;98929.44;5012479;28;20045;-74
2021/09/17 05:01:47;;;;;;;0.00;0.00;;;;;;;21.55;47.48;98924.47;5012636;28;20030;-73
2021/09/17 05:04:12;;;;;;;0.15;0.15;;;;;;;21.82;47.96;98927.47;5012744;28;20049;-74
2021/09/17 05:06:38;;;;;;;0.10;0.10;;;;;;;22.02;48.28;98920.13;5011295;28;20544;-74
2021/09/17 05:09:03;;;;;;;0.10;0.10;;;;;;;22.25;47.91;98911.25;5012376;28;20084;-75
2021/09/17 05:11:28;;;;;;;0.10;0.10;;;;;;;22.49;47.89;98912.16;5012016;28;20034;-75
2021/09/17 05:13:54;;;;;;;0.20;0.20;;;;;;;22.71;48.02;98908.69;5012855;28;20022;-75
2021/09/17 05:16:19;;;;;;;0.00;0.00;;;;;;;22.92;47.41;98921.13;5012532;28;20098;-75
2021/09/17 05:18:46;;;;;;;0.10;0.10;;;;;;;23.16;47.16;98927.41;5012409;28;20114;-75
2021/09/17 05:21:13;;;;;;;0.00;0.00;;;;;;;23.36;46.51;98930.88;5012283;28;20491;-75
2021/09/17 05:23:39;;;;;;;0.68;0.10;;;;;;;23.55;46.30;98942.88;5011992;28;20104;-74
2021/09/17 05:26:05;;;;;;;0.00;0.00;;;;;;;23.62;45.92;98942.97;5012360;28;20041;-74
2021/09/17 05:28:31;;;;;;;0.00;0.00;;;;;;;23.72;46.21;98952.50;5012025;28;20018;-74
2021/09/17 05:30:57;;;;;;;0.00;0.00;;;;;;;23.82;45.45;98941.72;5011966;28;20432;-75
2021/09/17 05:33:22;;;;;;;0.10;0.10;;;;;;;23.93;45.33;98924.75;5012212;28;20018;-74
2021/09/17 05:35:48;;;;;;;0.05;0.05;;;;;;;24.05;45.39;98924.53;5011973;28;20033;-74
2021/09/17 05:38:13;;;;;;;0.10;0.10;;;;;;;24.13;44.99;98926.19;5012061;28;20052;-75
2021/09/17 05:40:39;;;;;;;0.10;0.10;;;;;;;24.19;44.89;98914.94;5009775;28;20033;-75
2021/09/17 05:43:04;;;;;;;0.15;0.15;;;;;;;24.27;44.91;98911.91;5011910;28;20100;-74
2021/09/17 05:45:30;;;;;;;0.00;0.00;;;;;;;24.34;44.82;98918.63;5011461;28;20109;-75
2021/09/17 05:47:56;;;;;;;0.00;0.00;;;;;;;24.36;44.36;98922.56;5011920;28;20461;-75
2021/09/17 05:50:21;;;;;;;0.00;0.00;;;;;;;24.42;44.91;98923.03;5011990;28;20404;-75
2021/09/17 05:52:46;;;;;;;0.00;0.00;;;;;;;24.51;44.33;98918.06;5011697;28;20038;-74
2021/09/17 05:55:12;;;;;;;0.00;0.00;;;;;;;24.52;43.98;98919.63;5011422;28;20026;-74
2021/09/17 05:57:38;;;;;;;0.20;0.20;;;;;;;24.54;43.89;98922.00;5011624;28;20029;-74
2021/09/17 06:00:05;;;;;;;0.08;0.08;;;;;;;24.59;44.15;98919.69;5010359;28;20028;-74
2021/09/17 06:02:31;;;;;;;0.00;0.00;;;;;;;24.65;43.88;98925.63;5011433;28;20128;-75
2021/09/17 06:04:56;;;;;;;0.00;0.00;;;;;;;24.71;44.33;98923.38;5011737;28;20540;-74
2021/09/17 06:07:21;;;;;;;0.10;0.10;;;;;;;24.79;43.91;98916.81;5011667;28;20029;-74
2021/09/17 06:09:47;;;;;;;0.10;0.10;;;;;;;24.90;44.50;98923.19;5011685;28;20436;-74
2021/09/17 06:12:12;;;;;;;0.00;0.00;;;;;;;24.95;43.98;98908.41;5010249;28;20105;-75
2021/09/17 06:14:38;;;;;;;0.00;0.00;;;;;;;25.01;43.60;98909.63;5011093;28;20049;-75
2021/09/17 06:17:03;;;;;;;0.10;0.10;;;;;;;25.08;43.66;98917.91;5011491;28;20026;-75
2021/09/17 06:19:29;;;;;;;0.20;0.20;;;;;;;25.05;43.74;98915.91;5010897;28;20022;-75
2021/09/17 06:21:54;;;;;;;0.00;0.00;;;;;;;25.00;43.89;98915.44;5010137;28;20033;-75
2021/09/17 06:24:20;;;;;;;0.20;0.20;;;;;;;25.03;43.62;98918.22;5011414;28;20018;-75
2021/09/17 06:26:46;;;;;;;0.45;0.17;;;;;;;24.88;44.02;98922.78;5009822;28;20540;-75
2021/09/17 06:29:11;;;;;;;0.08;0.08;;;;;;;24.80;44.08;98917.63;5011460;28;20044;-75
2021/09/17 06:31:37;;;;;;;0.10;0.10;;;;;;;24.61;44.22;98920.13;5011409;28;20515;-75
2021/09/17 06:34:04;;;;;;;0.10;0.10;;;;;;;24.55;44.75;98924.34;5011338;28;20034;-75
2021/09/17 06:36:29;;;;;;;0.10;0.10;;;;;;;24.55;44.85;98932.56;5011203;28;20457;-75
2021/09/17 06:38:56;;;;;;;0.10;0.10;;;;;;;24.50;44.71;98935.63;5011389;28;20112;-75
2021/09/17 06:41:22;;;;;;;0.10;0.10;;;;;;;24.50;45.36;98930.16;5011358;28;20028;-75
2021/09/17 06:43:48;;;;;;;0.00;0.00;;;;;;;24.54;45.36;98933.72;5010980;28;20030;-75
2021/09/17 06:46:14;;;;;;;0.30;0.30;;;;;;;24.63;45.45;98944.34;5011441;28;20071;-75
2021/09/17 06:48:40;;;;;;;0.00;0.00;;;;;;;24.71;44.73;98946.03;5010952;28;20104;-75
2021/09/17 06:51:06;;;;;;;0.00;0.00;;;;;;;24.76;44.72;98926.56;5012572;28;20057;-75
2021/09/17 06:53:31;;;;;;;0.00;0.00;;;;;;;24.87;44.40;98923.94;5014962;28;20025;-75
2021/09/17 06:55:57;;;;;;;0.28;0.28;;;;;;;24.94;44.35;98918.53;5015066;28;20464;-75
2021/09/17 06:58:28;;;;;;;0.00;0.00;;;;;;;25.00;44.17;98910.78;5015044;28;20452;-75
2021/09/17 07:00:54;;;;;;;0.00;0.00;;;;;;;25.12;43.75;98919.88;5014838;28;20025;-75
2021/09/17 07:03:19;;;;;;;0.15;0.15;;;;;;;25.18;43.51;98927.38;5014984;28;20041;-75
2021/09/17 07:05:44;;;;;;;3.40;1.27;;;;;;;25.17;43.29;98930.47;5014653;28;20029;-75
2021/09/17 07:08:10;;;;;;;0.03;0.03;;;;;;;25.15;44.00;98930.06;5015088;28;20053;-75
2021/09/17 07:10:38;;;;;;;1.02;0.60;;;;;;;25.09;43.85;98924.91;5014459;28;20457;-75
2021/09/17 07:13:03;;;;;;;;;;;;;;;25.15;43.58;98925.38;5015231;28;20072;-75
2021/09/17 07:15:29;;;;;;;0.00;0.00;;;;;;;25.20;43.97;98919.53;5014417;28;19905;-75
2021/09/17 07:17:54;;;;;;;0.10;0.10;;;;;;;25.25;43.56;98926.63;5014464;28;20118;-75
2021/09/17 07:20:20;;;;;;;0.05;0.05;;;;;;;25.27;43.41;98916.09;5014600;28;20025;-75
2021/09/17 07:22:45;;;;;;;0.93;0.20;;;;;;;25.26;43.43;98918.03;5014393;28;20372;-75
2021/09/17 07:25:12;;;;;;;0.20;0.10;;;;;;;25.38;43.79;98922.47;5014618;28;20025;-75
2021/09/17 07:27:38;;;;;;;0.00;0.00;;;;;;;25.45;43.24;98915.47;5014389;28;20072;-75
2021/09/17 07:30:05;;;;;;;0.00;0.00;;;;;;;25.55;43.39;98918.28;5014453;28;20545;-75
2021/09/17 07:32:30;;;;;;;0.20;0.20;;;;;;;25.64;43.12;98917.19;5014196;28;20021;-75
2021/09/17 07:34:56;;;;;;;0.08;0.08;;;;;;;25.71;43.17;98925.44;5014349;28;20030;-75
2021/09/17 07:37:22;;;;;;;0.10;0.10;;;;;;;25.72;43.16;98919.59;5014110;28;20393;-75
2021/09/17 07:39:48;;;;;;;0.20;0.20;;;;;;;25.72;42.92;98921.53;5013812;28;20030;-76
2021/09/17 07:42:13;;;;;;;0.00;0.00;;;;;;;25.82;42.93;98915.34;5012944;28;20029;-75
2021/09/17 07:44:39;;;;;;;0.00;0.00;;;;;;;25.79;41.89;98907.88;5013836;28;20465;-76
2021/09/17 07:47:05;;;;;;;0.00;0.00;;;;;;;25.86;42.59;98909.88;5014004;28;20046;-76
2021/09/17 07:49:31;;;;;;;0.00;0.00;;;;;;;25.88;41.90;98905.59;5014120;28;20018;-75
2021/09/17 07:51:56;;;;;;;0.20;0.20;;;;;;;25.88;41.62;98899.34;5013638;28;20024;-76
2021/09/17 07:54:23;;;;;;;0.10;0.10;;;;;;;25.82;41.35;98906.34;5013803;28;20034;-75
2021/09/17 07:56:49;;;;;;;0.13;0.13;;;;;;;25.71;41.42;98904.31;5013813;28;20024;-75
2021/09/17 07:59:14;;;;;;;0.10;0.10;;;;;;;25.67;41.57;98900.78;5013958;28;20034;-75
2021/09/17 08:01:40;;;;;;;0.28;0.28;;;;;;;25.57;41.91;98902.28;5013662;28;20072;-75
2021/09/17 08:04:05;;;;;;;0.00;0.00;;;;;;;25.58;42.30;98916.75;5011707;28;20026;-76
2021/09/17 08:06:30;;;;;;;0.10;0.10;;;;;;;25.56;42.42;98910.84;5013863;28;20021;-74
2021/09/17 08:08:56;;;;;;;0.20;0.20;;;;;;;25.55;41.81;98901.88;5013597;28;20495;-74
2021/09/17 08:11:21;;;;;;;0.57;0.15;;;;;;;25.61;42.30;98906.97;5013771;28;20022;-75
2021/09/17 08:13:47;;;;;;;0.00;0.00;;;;;;;25.70;42.04;98904.69;5013269;28;20113;-75
2021/09/17 08:16:12;;;;;;;0.70;0.20;;;;;;;25.69;41.54;98908.59;5013516;28;20110;-75
2021/09/17 08:18:38;;;;;;;0.10;0.10;;;;;;;25.66;41.57;98899.19;5013293;28;20061;-75
2021/09/17 08:21:03;;;;;;;0.40;0.32;;;;;;;25.61;41.72;98894.09;5013237;28;20050;-75
2021/09/17 08:23:29;;;;;;;0.00;0.00;;;;;;;25.62;41.40;98894.88;5013289;28;20439;-75
2021/09/17 08:25:55;;;;;;;0.00;0.00;;;;;;;25.60;41.71;98884.28;5013192;28;20072;-75
2021/09/17 08:28:21;;;;;;;0.10;0.10;;;;;;;25.59;42.44;98877.25;5013471;28;20473;-75
2021/09/17 08:30:47;;;;;;;0.00;0.00;;;;;;;25.57;42.28;98865.88;5013250;28;20097;-75
2021/09/17 08:33:13;;;;;;;0.13;0.13;;;;;;;25.59;42.30;98869.03;5013630;28;20508;-75
2021/09/17 08:35:38;;;;;;;0.22;0.22;;;;;;;25.63;42.20;98867.09;5012880;28;20018;-75
2021/09/17 08:38:03;;;;;;;0.00;0.00;;;;;;;25.67;41.98;98869.84;5013178;28;20025;-75
2021/09/17 08:40:29;;;;;;;0.00;0.00;;;;;;;25.73;41.83;98865.56;5012960;28;20029;-75
2021/09/17 08:42:57;;;;;;;0.00;0.00;;;;;;;25.76;41.43;98856.63;5013017;28;20030;-75
2021/09/17 08:45:22;;;;;;;0.00;0.00;;;;;;;25.80;41.30;98862.88;5013066;28;20026;-75
2021/09/17 08:47:48;;;;;;;0.00;0.00;;;;;;;25.84;41.15;98852.75;5012454;28;20080;-75
2021/09/17 08:50:14;;;;;;;0.10;0.10;;;;;;;25.83;40.84;98845.69;5012936;28;20052;-75
2021/09/17 08:52:40;;;;;;;0.00;0.00;;;;;;;25.76;40.93;98840.19;5012756;28;20040;-74
2021/09/17 08:55:06;;;;;;;0.00;0.00;;;;;;;25.71;40.85;98844.06;5013096;28;20021;-76
2021/09/17 08:57:31;;;;;;;0.00;0.00;;;;;;;25.65;40.59;98836.59;5012604;28;20026;-76
2021/09/17 08:59:56;;;;;;;0.00;0.00;;;;;;;25.53;40.58;98840.44;5012316;28;20022;-76
2021/09/17 09:02:24;;;;;;;0.00;0.00;;;;;;;25.48;40.99;98835.34;5012640;28;20025;-75
2021/09/17 09:04:57;;;;;;;0.00;0.00;;;;;;;25.50;41.48;98846.66;5012467;28;20018;-75
2021/09/17 09:07:30;;;;;;;0.00;0.00;;;;;;;25.46;40.62;98830.22;5012706;28;20060;-75
2021/09/17 09:10:03;;;;;;;0.20;0.20;;;;;;;25.38;40.85;98821.19;5012159;28;20477;-75
2021/09/17 09:12:28;;;;;;;0.10;0.10;;;;;;;25.35;40.69;98827.41;5012558;28;20018;-74
2021/09/17 09:15:12;;;;;;;0.22;0.22;;;;;;;25.33;40.71;98827.00;5012237;28;20021;-76
2021/09/17 09:17:38;;;;;;;0.00;0.00;;;;;;;25.36;40.44;98817.22;5012324;28;20124;-75
2021/09/17 09:20:28;;;;;;;0.00;0.00;;;;;;;25.41;40.32;98811.41;5012201;28;20418;-75
2021/09/17 09:23:23;;;;;;;0.00;0.00;;;;;;;25.52;40.02;98815.03;5012211;28;20025;-75
2021/09/17 09:25:59;;;;;;;0.20;0.20;;;;;;;25.63;40.02;98803.34;5012213;28;20026;-75
2021/09/17 09:28:33;;;;;;;0.10;0.10;;;;;;;25.73;39.68;98799.84;5012363;28;20493;-74
2021/09/17 09:31:13;;;;;;;0.30;0.30;;;;;;;25.80;39.06;98796.38;5011669;28;20523;-74
2021/09/17 09:33:43;;;;;;;0.20;0.20;;;;;;;25.80;39.57;98786.19;5012299;28;20026;-75
2021/09/17 09:36:12;;;;;;;0.20;0.20;;;;;;;25.87;39.43;98788.97;5010916;28;20026;-75
2021/09/17 09:38:51;;;;;;;0.10;0.10;;;;;;;25.97;39.39;98784.69;5010543;28;20026;-75
2021/09/17 09:41:25;;;;;;;0.32;0.32;;;;;;;26.07;38.31;98776.94;5012081;28;20457;-75
2021/09/17 09:44:04;;;;;;;2.75;1.48;;;;;;;26.08;37.43;98776.53;5011808;28;20579;-75
2021/09/17 09:46:42;;;;;;;0.00;0.00;;;;;;;26.17;36.99;98778.91;5010640;28;20033;-75
2021/09/17 09:49:22;;;;;;;0.00;0.00;;;;;;;26.18;36.62;98777.72;5011507;28;20508;-75
2021/09/17 09:52:08;;;;;;;0.00;0.00;;;;;;;26.22;37.24;98756.63;5010165;28;20049;-76
2021/09/17 09:54:36;;;;;;;0.00;0.00;;;;;;;26.26;37.47;98751.91;5010598;28;20033;-75
2021/09/17 09:57:04;;;;;;;0.00;0.00;;;;;;;26.39;37.60;98757.00;5011594;28;20029;-75
2021/09/17 09:59:31;;;;;;;0.00;0.00;;;;;;;26.40;37.23;98759.34;5011662;28;20026;-75
2021/09/17 10:01:59;;;;;;;1.65;0.25;;;;;;;26.47;37.11;98755.84;5010300;28;20698;-74
2021/09/17 10:04:25;;;;;;;;;;;;;;;26.50;36.86;98746.84;5012100;28;20488;-75
2021/09/17 10:07:03;;;;;;;1.00;0.20;;;;;;;26.55;36.85;98735.50;5011445;28;19989;-75
2021/09/17 10:09:29;;;;;;;;;;;;;;;26.60;36.74;98737.84;5011758;28;20053;-75
2021/09/17 10:11:58;;;;;;;0.13;0.13;;;;;;;26.62;36.95;98731.97;5011346;28;19955;-75
2021/09/17 10:14:26;;;;;;;0.10;0.10;;;;;;;26.71;37.03;98737.03;5011805;28;20392;-75
2021/09/17 10:16:52;;;;;;;0.00;0.00;;;;;;;26.76;37.39;98726.50;5011341;28;20026;-76
2021/09/17 10:19:20;;;;;;;0.00;0.00;;;;;;;26.85;37.34;98726.09;5011615;28;20036;-76
2021/09/17 10:21:54;;;;;;;0.00;0.00;;;;;;;26.98;36.35;98726.47;5009807;28;20034;-75
2021/09/17 10:24:25;;;;;;;0.20;0.20;;;;;;;27.04;36.33;98724.91;5011277;28;20014;-75
2021/09/17 10:27:09;;;;;;;0.20;0.20;;;;;;;27.09;36.08;98735.47;5010164;28;20121;-75
2021/09/17 10:29:42;;;;;;;0.00;0.00;;;;;;;27.14;36.24;98723.31;5011179;28;20076;-74
2021/09/17 10:32:27;;;;;;;0.13;0.13;;;;;;;27.15;35.91;98720.16;5011264;28;20033;-74
2021/09/17 10:35:22;;;;;;;0.17;0.17;;;;;;;27.16;36.05;98721.72;5011281;28;20025;-75
2021/09/17 10:37:48;;;;;;;0.10;0.10;;;;;;;27.24;35.85;98707.97;5011036;28;20076;-74
2021/09/17 10:40:14;;;;;;;0.35;0.35;;;;;;;27.31;35.70;98702.47;5011115;28;20021;-74
2021/09/17 10:43:08;;;;;;;0.00;0.00;;;;;;;27.37;35.56;98697.34;5010943;28;20076;-75
2021/09/17 10:45:41;;;;;;;0.25;0.25;;;;;;;27.40;35.45;98694.56;5011351;28;20030;-76
2021/09/17 10:48:08;;;;;;;0.00;0.00;;;;;;;27.43;35.78;98685.59;5011429;28;20512;-76
2021/09/17 10:51:07;;;;;;;0.20;0.20;;;;;;;27.52;35.28;98687.88;5011072;28;20022;-75
2021/09/17 10:53:41;;;;;;;0.03;0.03;;;;;;;27.64;35.02;98681.19;4997755;28;20445;-75
2021/09/17 10:56:16;;;;;;;0.10;0.10;;;;;;;27.73;35.29;98675.22;5010886;28;20025;-75
2021/09/17 10:58:45;;;;;;;0.05;0.03;;;;;;;27.85;34.95;98672.00;5010813;28;20384;-75
2021/09/17 11:01:15;;;;;;;0.20;0.13;;;;;;;27.95;34.31;98668.44;5011072;28;20529;-74
2021/09/17 11:03:40;;;;;;;0.10;0.10;;;;;;;28.04;33.81;98675.41;5010711;28;20396;-74
2021/09/17 11:06:18;;;;;;;0.00;0.00;;;;;;;28.09;34.07;98662.06;5010811;28;20014;-74
2021/09/17 11:08:48;;;;;;;0.20;0.20;;;;;;;28.21;33.90;98660.81;5009214;28;20112;-74
2021/09/17 11:11:28;;;;;;;0.22;0.17;;;;;;;28.32;33.80;98651.69;5010677;28;20022;-75
2021/09/17 11:13:56;;;;;;;0.20;0.20;;;;;;;28.39;33.40;98657.13;5010640;28;20026;-74
2021/09/17 11:16:22;;;;;;;;;;;;;;;28.49;33.42;98660.97;5011318;28;20616;-75
2021/09/17 11:19:05;;;;;;;0.00;0.00;;;;;;;28.55;33.15;98657.38;5010718;28;19913;-75
2021/09/17 11:21:37;;;;;;;0.20;0.20;;;;;;;28.64;33.16;98653.34;5011237;28;20425;-75
2021/09/17 11:24:04;;;;;;;0.00;0.00;;;;;;;28.71;32.67;98645.84;5010600;28;20029;-75
2021/09/17 11:26:34;;;;;;;0.00;0.00;;;;;;;28.80;32.86;98641.84;5010922;28;20026;-76
2021/09/17 11:29:11;;;;;;;0.00;0.00;;;;;;;28.89;32.49;98642.13;5010663;28;20073;-75
2021/09/17 11:31:42;;;;;;;0.08;0.08;;;;;;;28.95;32.25;98640.47;5010884;28;20037;-75
2021/09/17 11:34:10;;;;;;;0.43;0.43;;;;;;;29.04;32.14;98637.22;5010299;28;20061;-76